createdAt,value
2023-03-11T00:02:17.230Z,100696.25
2023-03-11T00:04:49.929Z,100697.53
2023-03-11T00:07:24.090Z,100699.13
2023-03-11T00:09:56.771Z,100704.69
2023-03-11T00:12:29.356Z,100700.44
2023-03-11T00:15:02.037Z,100716.31
2023-03-11T00:17:34.888Z,100720.16
2023-03-11T00:20:08.983Z,100721.44
2023-03-11T00:22:42.978Z,100728.28
2023-03-11T00:25:16.039Z,100733.69
2023-03-11T00:27:48.819Z,100735.91
2023-03-11T00:30:22.138Z,100746.28
2023-03-11T00:32:56.046Z,100735.44
2023-03-11T00:35:30.768Z,100742.47
2023-03-11T00:38:06.542Z,100741.03
2023-03-11T00:40:40.204Z,100738.34
2023-03-11T00:43:12.946Z,100741.06
2023-03-11T00:45:45.907Z,100737.22
2023-03-11T00:48:18.944Z,100739.91
2023-03-11T00:50:51.786Z,100737.56
2023-03-11T00:53:25.898Z,100740.88
2023-03-11T00:55:58.531Z,100745.66
2023-03-11T00:58:33.319Z,100750.31
2023-03-11T01:01:08.513Z,100738.53
2023-03-11T01:03:41.140Z,100747.91
2023-03-11T01:06:14.370Z,100751.09
2023-03-11T01:08:48.349Z,100756.97
2023-03-11T01:11:22.391Z,100754.44
2023-03-11T01:13:55.128Z,100749.50
2023-03-11T01:16:27.936Z,100748.22
2023-03-11T01:19:00.700Z,100747.13
2023-03-11T01:21:33.603Z,100750.16
2023-03-11T01:24:07.926Z,100752.06
2023-03-11T01:26:40.782Z,100753.50
2023-03-11T01:29:13.351Z,100754.28
2023-03-11T01:31:46.255Z,100753.31
2023-03-11T01:34:18.920Z,100757.31
2023-03-11T01:36:51.576Z,100757.63
2023-03-11T01:39:27.297Z,100762.75
2023-03-11T01:42:00.172Z,100766.88
2023-03-11T01:44:32.957Z,100766.88
2023-03-11T01:47:24.518Z,100765.94
2023-03-11T01:49:57.428Z,100769.72
2023-03-11T01:52:30.366Z,100767.53
2023-03-11T01:55:06.292Z,100770.38
2023-03-11T01:57:40.124Z,100769.72
2023-03-11T02:00:15.684Z,100771.34
2023-03-11T02:02:51.296Z,100775.31
2023-03-11T02:05:27.005Z,100769.44
2023-03-11T02:08:00.168Z,100770.06
2023-03-11T02:10:39.335Z,100774.69
2023-03-11T02:13:12.740Z,100773.09
2023-03-11T02:15:45.525Z,100777.56
2023-03-11T02:18:20.302Z,100773.25
2023-03-11T02:20:55.706Z,100773.56
2023-03-11T02:23:31.621Z,100770.69
2023-03-11T02:26:09.154Z,100770.38
2023-03-11T02:28:44.220Z,100770.56
2023-03-11T02:31:17.355Z,100775.31
2023-03-11T02:33:52.274Z,100768.66
2023-03-11T02:36:32.158Z,100769.75
2023-03-11T02:39:05.674Z,100770.56
2023-03-11T02:41:40.619Z,100775.00
2023-03-11T02:44:15.451Z,100770.88
2023-03-11T02:46:48.496Z,100768.97
2023-03-11T02:49:22.074Z,100772.94
2023-03-11T02:51:54.663Z,100776.59
2023-03-11T02:54:27.438Z,100782.00
2023-03-11T02:57:00.713Z,100779.59
2023-03-11T02:59:35.135Z,100787.28
2023-03-11T03:02:07.759Z,100793.16
2023-03-11T03:04:40.505Z,100790.78
2023-03-11T03:07:13.247Z,100797.31
2023-03-11T03:09:45.934Z,100796.03
2023-03-11T03:12:18.565Z,100795.41
2023-03-11T03:14:52.528Z,100798.91
2023-03-11T03:17:25.118Z,100799.53
2023-03-11T03:19:58.032Z,100802.06
2023-03-11T03:22:31.010Z,100806.06
2023-03-11T03:25:04.028Z,100811.00
2023-03-11T03:27:36.830Z,100810.66
2023-03-11T03:30:12.835Z,100812.44
2023-03-11T03:32:46.140Z,100813.56
2023-03-11T03:35:21.702Z,100816.28
2023-03-11T03:38:14.179Z,100821.03
2023-03-11T03:40:48.298Z,100816.09
2023-03-11T03:43:23.699Z,100826.31
2023-03-11T03:45:58.320Z,100827.56
2023-03-11T03:48:33.514Z,100830.75
2023-03-11T03:51:08.664Z,100832.19
2023-03-11T03:53:43.816Z,100832.50
2023-03-11T03:56:17.775Z,100836.97
2023-03-11T03:58:50.717Z,100828.19
2023-03-11T04:01:25.519Z,100828.69
2023-03-11T04:03:58.336Z,100824.69
2023-03-11T04:06:31.496Z,100821.66
2023-03-11T04:09:08.724Z,100821.66
2023-03-11T04:11:41.308Z,100824.22
2023-03-11T04:14:14.565Z,100832.03
2023-03-11T04:16:57.714Z,100829.31
2023-03-11T04:19:30.426Z,100835.03
2023-03-11T04:22:03.852Z,100833.94
2023-03-11T04:24:36.460Z,100834.72
2023-03-11T04:27:09.345Z,100837.56
2023-03-11T04:29:41.984Z,100836.31
2023-03-11T04:32:16.057Z,100848.25
2023-03-11T04:34:50.723Z,100852.41
2023-03-11T04:37:28.163Z,100851.28
2023-03-11T04:40:00.938Z,100853.19
2023-03-11T04:42:34.734Z,100852.41
2023-03-11T04:45:08.720Z,100857.03
2023-03-11T04:47:43.159Z,100860.66
2023-03-11T04:50:15.878Z,100853.19
2023-03-11T04:52:48.618Z,100857.44
2023-03-11T04:55:21.297Z,100859.84
2023-03-11T04:57:54.153Z,100862.56
2023-03-11T05:00:27.320Z,100860.78
2023-03-11T05:03:10.452Z,100865.88
2023-03-11T05:05:43.468Z,100867.97
2023-03-11T05:08:16.371Z,100879.09
2023-03-11T05:10:50.494Z,100872.25
2023-03-11T05:13:23.455Z,100875.44
2023-03-11T05:15:57.944Z,100883.22
2023-03-11T05:18:32.586Z,100881.16
2023-03-11T05:21:05.598Z,100876.09
2023-03-11T05:23:40.332Z,100871.13
2023-03-11T05:26:13.140Z,100870.47
2023-03-11T05:28:48.661Z,100876.03
2023-03-11T05:31:21.444Z,100883.22
2023-03-11T05:33:55.473Z,100879.53
2023-03-11T05:36:28.008Z,100887.16
2023-03-11T05:39:00.648Z,100891.78
2023-03-11T05:41:33.994Z,100891.63
2023-03-11T05:44:07.183Z,100886.69
2023-03-11T05:46:39.913Z,100889.06
2023-03-11T05:49:14.427Z,100891.63
2023-03-11T05:51:47.165Z,100900.19
2023-03-11T05:54:19.839Z,100905.28
2023-03-11T05:56:55.839Z,100898.28
2023-03-11T05:59:29.143Z,100897.59
2023-03-11T06:02:07.277Z,100903.84
2023-03-11T06:04:41.399Z,100903.50
2023-03-11T06:07:16.133Z,100909.19
2023-03-11T06:09:52.002Z,100914.75
2023-03-11T06:12:25.016Z,100914.59
2023-03-11T06:15:16.303Z,100923.81
2023-03-11T06:17:48.941Z,100925.75
2023-03-11T06:20:22.965Z,100925.41
2023-03-11T06:22:56.567Z,100935.44
2023-03-11T06:25:30.305Z,100936.47
2023-03-11T06:28:02.801Z,100935.88
2023-03-11T06:30:35.909Z,100929.44
2023-03-11T06:33:15.577Z,100934.53
2023-03-11T06:35:58.633Z,100933.56
2023-03-11T06:38:31.493Z,100939.56
2023-03-11T06:41:05.015Z,100941.66
2023-03-11T06:43:38.894Z,100949.94
2023-03-11T06:46:13.333Z,100950.56
2023-03-11T06:48:46.767Z,100945.59
2023-03-11T06:51:23.558Z,100942.03
2023-03-11T06:53:56.187Z,100945.66
2023-03-11T06:56:29.969Z,100951.25
2023-03-11T06:59:07.926Z,100948.03
2023-03-11T07:01:41.157Z,100956.41
2023-03-11T07:04:15.244Z,100962.72
2023-03-11T07:06:50.012Z,100965.75
2023-03-11T07:09:27.759Z,100960.75
2023-03-11T07:12:00.625Z,100968.94
2023-03-11T07:14:38.106Z,100967.84
2023-03-11T07:17:10.758Z,100969.59
2023-03-11T07:19:49.752Z,100975.00
2023-03-11T07:22:23.727Z,100974.69
2023-03-11T07:24:56.279Z,100975.44
2023-03-11T07:27:29.359Z,100976.91
2023-03-11T07:30:02.056Z,100982.69
2023-03-11T07:32:34.799Z,100987.47
2023-03-11T07:35:08.082Z,100999.50
2023-03-11T07:37:42.044Z,101000.88
2023-03-11T07:40:15.066Z,101002.47
2023-03-11T07:42:47.982Z,101003.53
2023-03-11T07:45:21.476Z,101005.75
2023-03-11T07:47:54.264Z,101009.59
2023-03-11T07:50:26.791Z,101013.44
2023-03-11T07:53:00.927Z,101014.38
2023-03-11T07:55:33.624Z,101018.16
2023-03-11T07:58:06.277Z,101026.28
2023-03-11T08:00:38.855Z,101021.72
2023-03-11T08:03:11.446Z,101020.91
2023-03-11T08:05:44.057Z,101030.31
2023-03-11T08:08:18.036Z,101025.53
2023-03-11T08:10:50.853Z,101035.41
2023-03-11T08:13:23.429Z,101040.66
2023-03-11T08:15:56.109Z,101043.09
2023-03-11T08:18:28.802Z,101045.78
2023-03-11T08:21:05.099Z,101042.75
2023-03-11T08:23:39.246Z,101036.72
2023-03-11T08:26:13.589Z,101035.59
2023-03-11T08:28:46.238Z,101039.31
2023-03-11T08:31:19.598Z,101045.56
2023-03-11T08:33:53.906Z,101041.25
2023-03-11T08:36:26.584Z,101049.84
2023-03-11T08:39:00.708Z,101054.66
2023-03-11T08:41:33.686Z,101063.25
2023-03-11T08:44:06.386Z,101065.84
2023-03-11T08:46:39.463Z,101057.22
2023-03-11T08:49:12.055Z,101058.06
2023-03-11T08:51:44.571Z,101060.59
2023-03-11T08:54:18.834Z,101060.63
2023-03-11T08:56:51.485Z,101058.25
2023-03-11T08:59:24.107Z,101056.19
2023-03-11T09:01:56.679Z,101060.13
2023-03-11T09:04:29.330Z,101063.03
2023-03-11T09:07:01.912Z,101067.97
2023-03-11T09:09:35.926Z,101070.69
2023-03-11T09:12:09.107Z,101069.28
2023-03-11T09:14:41.725Z,101070.88
2023-03-11T09:17:14.479Z,101076.50
2023-03-11T09:19:47.044Z,101076.00
2023-03-11T09:22:19.658Z,101078.41
2023-03-11T09:24:53.826Z,101073.94
2023-03-11T09:27:26.410Z,101078.25
2023-03-11T09:29:59.268Z,101077.00
2023-03-11T09:32:31.960Z,101084.47
2023-03-11T09:35:05.046Z,101079.88
2023-03-11T09:37:37.987Z,101092.00
2023-03-11T09:40:17.335Z,101088.03
2023-03-11T09:42:55.308Z,101091.88
2023-03-11T09:45:29.031Z,101090.44
2023-03-11T09:48:10.039Z,101093.97
2023-03-11T09:50:48.716Z,101089.19
2023-03-11T09:53:30.218Z,101088.25
2023-03-11T09:56:07.072Z,101091.94
2023-03-11T09:58:42.246Z,101088.09
2023-03-11T10:01:18.157Z,101091.78
2023-03-11T10:03:53.003Z,101099.28
2023-03-11T10:06:26.950Z,101088.91
2023-03-11T10:09:02.294Z,101093.66
2023-03-11T10:11:45.457Z,101084.72
2023-03-11T10:14:27.240Z,101083.88
2023-03-11T10:17:05.222Z,101080.22
2023-03-11T10:19:43.400Z,101077.66
2023-03-11T10:22:20.805Z,101080.34
2023-03-11T10:25:01.609Z,101079.69
2023-03-11T10:27:42.072Z,101085.41
2023-03-11T10:30:20.282Z,101078.84
2023-03-11T10:32:56.479Z,101087.28
2023-03-11T10:35:33.740Z,101087.59
2023-03-11T10:38:09.302Z,101094.16
2023-03-11T10:40:42.856Z,101093.19
2023-03-11T10:43:18.728Z,101101.72
2023-03-11T10:45:51.725Z,101111.91
2023-03-11T10:48:26.066Z,101105.50
2023-03-11T10:51:02.563Z,101114.78
2023-03-11T10:53:44.753Z,101110.75
2023-03-11T10:56:29.301Z,101123.31
2023-03-11T10:59:09.402Z,101113.75
2023-03-11T11:01:54.716Z,101118.00
2023-03-11T11:04:32.232Z,101116.88
2023-03-11T11:07:29.519Z,101119.22
2023-03-11T11:10:16.794Z,101129.06
2023-03-11T11:12:54.090Z,101123.31
2023-03-11T11:15:29.730Z,101126.19
2023-03-11T11:18:04.534Z,101117.50
2023-03-11T11:20:39.005Z,101126.94
2023-03-11T11:23:25.493Z,101120.53
2023-03-11T11:25:59.563Z,101121.09
2023-03-11T11:28:33.193Z,101120.53
2023-03-11T11:31:19.992Z,101122.22
2023-03-11T11:33:53.583Z,101122.22
2023-03-11T11:36:28.699Z,101125.13
2023-03-11T11:39:03.338Z,101128.19
2023-03-11T11:41:37.752Z,101108.59
2023-03-11T11:44:19.121Z,101110.94
2023-03-11T11:46:56.908Z,101106.72
2023-03-11T11:49:31.591Z,101104.88
2023-03-11T11:52:05.820Z,101109.81
2023-03-11T11:54:40.525Z,101109.53
2023-03-11T11:57:14.634Z,101108.63
2023-03-11T11:59:50.147Z,101111.69
2023-03-11T12:02:37.988Z,101117.06
2023-03-11T12:05:16.386Z,101110.88
2023-03-11T12:07:56.076Z,101109.63
2023-03-11T12:10:30.490Z,101101.69
2023-03-11T12:13:22.788Z,101101.53
2023-03-11T12:16:00.103Z,101109.31
2023-03-11T12:18:37.846Z,101110.22
2023-03-11T12:21:21.731Z,101115.97
2023-03-11T12:24:03.949Z,101106.03
2023-03-11T12:26:37.774Z,101109.03
2023-03-11T12:29:16.263Z,101107.56
2023-03-11T12:31:49.368Z,101111.00
2023-03-11T12:34:25.197Z,101111.13
2023-03-11T12:36:59.487Z,101113.97
2023-03-11T12:39:33.846Z,101113.31
2023-03-11T12:42:20.112Z,101116.81
2023-03-11T12:44:54.258Z,101109.53
2023-03-11T12:47:28.832Z,101114.59
2023-03-11T12:50:20.249Z,101104.75
2023-03-11T12:52:54.997Z,101107.69
2023-03-11T12:55:32.899Z,101100.09
2023-03-11T12:58:28.561Z,101102.69
2023-03-11T13:01:11.006Z,101095.03
2023-03-11T13:03:48.624Z,101093.63
2023-03-11T13:06:34.343Z,101104.25
2023-03-11T13:09:14.587Z,101095.16
2023-03-11T13:11:48.590Z,101095.75
2023-03-11T13:14:33.817Z,101101.53
2023-03-11T13:17:27.309Z,101098.13
2023-03-11T13:19:59.995Z,101092.47
2023-03-11T13:22:51.087Z,101091.59
2023-03-11T13:25:29.287Z,101092.47
2023-03-11T13:28:12.212Z,101091.16
2023-03-11T13:30:52.566Z,101097.19
2023-03-11T13:33:31.387Z,101084.66
2023-03-11T13:36:12.566Z,101091.56
2023-03-11T13:39:02.058Z,101094.84
2023-03-11T13:41:37.365Z,101095.66
2023-03-11T13:44:15.807Z,101091.00
2023-03-11T13:46:50.658Z,101100.44
2023-03-11T13:49:27.426Z,101092.19
2023-03-11T13:52:01.276Z,101101.53
2023-03-11T13:54:37.055Z,101099.59
2023-03-11T13:57:20.253Z,101100.34
2023-03-11T13:59:53.996Z,101101.44
2023-03-11T14:02:27.624Z,101105.84
2023-03-11T14:05:04.774Z,101116.94
2023-03-11T14:07:38.605Z,101110.56
2023-03-11T14:10:18.108Z,101115.34
2023-03-11T14:12:52.733Z,101118.81
2023-03-11T14:15:26.984Z,101116.84
2023-03-11T14:18:16.768Z,101119.19
2023-03-11T14:20:50.783Z,101125.41
2023-03-11T14:23:29.565Z,101121.06
2023-03-11T14:26:04.781Z,101119.41
2023-03-11T14:28:41.616Z,101111.91
2023-03-11T14:31:25.694Z,101126.06
2023-03-11T14:34:04.212Z,101118.16
2023-03-11T14:36:44.683Z,101118.78
2023-03-11T14:39:24.109Z,101113.97
2023-03-11T14:41:58.710Z,101113.09
2023-03-11T14:44:34.130Z,101110.97
2023-03-11T14:47:10.159Z,101111.22
2023-03-11T14:49:43.234Z,101106.22
2023-03-11T14:52:20.352Z,101119.00
2023-03-11T14:54:53.799Z,101118.47
2023-03-11T14:57:32.976Z,101118.34
2023-03-11T15:00:15.016Z,101118.25
2023-03-11T15:02:59.410Z,101121.25
2023-03-11T15:05:35.978Z,101127.44
2023-03-11T15:08:09.236Z,101126.50
2023-03-11T15:11:03.129Z,101130.63
2023-03-11T15:13:37.141Z,101126.22
2023-03-11T15:16:22.882Z,101123.78
2023-03-11T15:18:55.643Z,101125.22
2023-03-11T15:21:28.441Z,101125.00
2023-03-11T15:24:02.188Z,101120.16
2023-03-11T15:26:38.390Z,101129.50
2023-03-11T15:29:15.546Z,101121.47
2023-03-11T15:31:50.040Z,101122.19
2023-03-11T15:34:27.888Z,101112.66
2023-03-11T15:37:06.350Z,101116.56
2023-03-11T15:39:44.053Z,101114.91
2023-03-11T15:42:20.800Z,101117.56
2023-03-11T15:45:02.137Z,101112.31
2023-03-11T15:47:36.215Z,101110.13
2023-03-11T15:50:25.225Z,101111.63
2023-03-11T15:52:59.419Z,101111.91
2023-03-11T15:55:32.673Z,101105.56
2023-03-11T15:58:08.079Z,101112.06
2023-03-11T16:00:47.440Z,101106.13
2023-03-11T16:03:21.448Z,101100.47
2023-03-11T16:05:54.191Z,101104.31
2023-03-11T16:08:26.797Z,101097.88
2023-03-11T16:10:59.653Z,101102.88
2023-03-11T16:13:32.266Z,101103.63
2023-03-11T16:16:05.372Z,101113.97
2023-03-11T16:18:39.521Z,101104.00
2023-03-11T16:21:15.444Z,101101.25
2023-03-11T16:23:51.957Z,101100.63
2023-03-11T16:26:24.926Z,101106.38
2023-03-11T16:29:06.203Z,101101.53
2023-03-11T16:31:45.611Z,101096.41
2023-03-11T16:34:19.860Z,101104.16
2023-03-11T16:36:52.572Z,101095.75
2023-03-11T16:39:25.144Z,101088.25
2023-03-11T16:41:57.838Z,101085.09
2023-03-11T16:44:30.363Z,101088.94
2023-03-11T16:47:03.248Z,101079.09
2023-03-11T16:49:37.273Z,101077.84
2023-03-11T16:52:09.963Z,101079.69
2023-03-11T16:54:42.760Z,101076.16
2023-03-11T16:57:15.466Z,101081.53
2023-03-11T16:59:49.424Z,101084.06
2023-03-11T17:02:24.415Z,101095.00
2023-03-11T17:04:58.659Z,101087.09
2023-03-11T17:07:31.468Z,101091.66
2023-03-11T17:10:04.898Z,101086.91
2023-03-11T17:12:37.763Z,101088.28
2023-03-11T17:15:10.803Z,101089.78
2023-03-11T17:17:43.429Z,101087.38
2023-03-11T17:20:19.315Z,101092.22
2023-03-11T17:22:53.324Z,101089.28
2023-03-11T17:25:25.892Z,101084.53
2023-03-11T17:27:58.806Z,101087.16
2023-03-11T17:30:37.076Z,101094.56
2023-03-11T17:33:10.412Z,101095.25
2023-03-11T17:35:44.423Z,101100.06
2023-03-11T17:38:17.295Z,101101.91
2023-03-11T17:40:49.875Z,101111.13
2023-03-11T17:43:22.818Z,101110.22
2023-03-11T17:45:55.413Z,101115.13
2023-03-11T17:48:29.032Z,101110.03
2023-03-11T17:51:07.188Z,101121.59
2023-03-11T17:53:40.255Z,101120.72
2023-03-11T17:56:14.180Z,101129.94
2023-03-11T17:58:47.167Z,101123.59
2023-03-11T18:01:20.901Z,101122.00
2023-03-11T18:03:53.890Z,101119.50
2023-03-11T18:06:28.279Z,101129.63
2023-03-11T18:09:00.932Z,101131.56
2023-03-11T18:11:33.731Z,101136.09
2023-03-11T18:14:07.300Z,101137.00
2023-03-11T18:16:40.261Z,101133.03
2023-03-11T18:19:13.130Z,101132.13
2023-03-11T18:21:47.361Z,101129.75
2023-03-11T18:24:20.830Z,101138.03
2023-03-11T18:26:53.397Z,101137.25
2023-03-11T18:29:26.180Z,101139.50
2023-03-11T18:31:58.878Z,101139.75
2023-03-11T18:34:32.511Z,101143.03
2023-03-11T18:37:06.713Z,101147.94
2023-03-11T18:39:39.867Z,101137.22
2023-03-11T18:42:14.301Z,101142.59
2023-03-11T18:44:47.025Z,101140.88
2023-03-11T18:47:19.692Z,101141.53
2023-03-11T18:49:52.400Z,101143.31
2023-03-11T18:52:26.499Z,101142.38
2023-03-11T18:54:59.173Z,101143.09
2023-03-11T18:57:31.765Z,101138.31
2023-03-11T19:00:05.220Z,101146.81
2023-03-11T19:02:37.787Z,101140.31
2023-03-11T19:05:10.884Z,101147.34
2023-03-11T19:07:44.853Z,101139.41
2023-03-11T19:10:20.164Z,101141.00
2023-03-11T19:12:52.890Z,101136.91
2023-03-11T19:15:25.698Z,101143.03
2023-03-11T19:18:06.716Z,101130.50
2023-03-11T19:20:40.081Z,101128.13
2023-03-11T19:23:14.016Z,101128.69
2023-03-11T19:26:00.767Z,101127.09
2023-03-11T19:28:35.575Z,101116.19
2023-03-11T19:31:08.366Z,101126.19
2023-03-11T19:33:41.286Z,101121.38
2023-03-11T19:36:14.259Z,101127.53
2023-03-11T19:38:48.978Z,101119.56
2023-03-11T19:41:23.189Z,101119.56
2023-03-11T19:43:55.820Z,101124.34
2023-03-11T19:46:29.761Z,101122.28
2023-03-11T19:49:02.364Z,101126.47
2023-03-11T19:51:49.144Z,101123.41
2023-03-11T19:54:23.338Z,101127.00
2023-03-11T19:56:55.955Z,101131.88
2023-03-11T19:59:28.586Z,101128.34
2023-03-11T20:02:01.375Z,101134.25
2023-03-11T20:04:34.148Z,101136.97
2023-03-11T20:07:07.069Z,101128.53
2023-03-11T20:09:41.069Z,101126.31
2023-03-11T20:12:13.816Z,101123.09
2023-03-11T20:14:46.833Z,101123.59
2023-03-11T20:17:19.684Z,101127.97
2023-03-11T20:19:52.469Z,101119.47
2023-03-11T20:22:25.150Z,101126.84
2023-03-11T20:24:59.187Z,101129.41
2023-03-11T20:27:31.769Z,101125.91
2023-03-11T20:30:04.958Z,101116.81
2023-03-11T20:32:37.888Z,101121.59
2023-03-11T20:35:10.786Z,101127.03
2023-03-11T20:37:43.476Z,101116.34
2023-03-11T20:40:18.893Z,101115.09
2023-03-11T20:42:51.818Z,101105.97
2023-03-11T20:45:25.866Z,101105.66
2023-03-11T20:47:58.941Z,101104.09
2023-03-11T20:50:31.960Z,101110.97
2023-03-11T20:53:04.743Z,101110.63
2023-03-11T20:55:41.739Z,101105.88
2023-03-11T20:58:14.463Z,101103.13
2023-03-11T21:00:47.072Z,101099.63
2023-03-11T21:03:19.744Z,101103.13
2023-03-11T21:05:53.124Z,101104.38
2023-03-11T21:08:25.959Z,101101.88
2023-03-11T21:11:01.673Z,101105.25
2023-03-11T21:13:36.151Z,101097.44
2023-03-11T21:16:09.575Z,101093.56
2023-03-11T21:18:43.001Z,101092.13
2023-03-11T21:21:16.430Z,101097.09
2023-03-11T21:23:49.746Z,101097.59
2023-03-11T21:26:23.710Z,101096.63
2023-03-11T21:28:56.675Z,101108.31
2023-03-11T21:31:30.068Z,101099.69
2023-03-11T21:34:02.907Z,101101.63
2023-03-11T21:36:36.072Z,101096.19
2023-03-11T21:39:08.869Z,101092.50
2023-03-11T21:41:42.951Z,101094.09
2023-03-11T21:44:15.594Z,101087.06
2023-03-11T21:46:48.393Z,101088.88
2023-03-11T21:49:21.061Z,101088.66
2023-03-11T21:51:53.662Z,101084.25
2023-03-11T21:54:26.285Z,101080.84
2023-03-11T21:57:00.643Z,101074.34
2023-03-11T21:59:33.542Z,101076.13
2023-03-11T22:02:06.338Z,101075.94
2023-03-11T22:04:39.254Z,101074.22
2023-03-11T22:07:12.169Z,101072.94
2023-03-11T22:09:44.922Z,101076.59
2023-03-11T22:12:19.028Z,101074.22
2023-03-11T22:14:51.803Z,101070.22
2023-03-11T22:17:24.457Z,101067.94
2023-03-11T22:19:57.398Z,101063.00
2023-03-11T22:22:29.998Z,101057.75
2023-03-11T22:25:02.749Z,101056.81
2023-03-11T22:27:36.671Z,101054.09
2023-03-11T22:30:10.022Z,101057.47
2023-03-11T22:32:42.731Z,101048.19
2023-03-11T22:35:15.556Z,101044.34
2023-03-11T22:37:48.142Z,101040.25
2023-03-11T22:40:20.797Z,101035.88
2023-03-11T22:42:54.683Z,101028.00
2023-03-11T22:45:27.613Z,101036.13
2023-03-11T22:48:00.732Z,101040.88
2023-03-11T22:50:33.684Z,101040.28
2023-03-11T22:53:06.725Z,101033.84
2023-03-11T22:55:40.152Z,101033.72
2023-03-11T22:58:14.088Z,101035.91
2023-03-11T23:00:46.933Z,101030.94
2023-03-11T23:03:19.625Z,101029.38
2023-03-11T23:05:52.421Z,101018.88
2023-03-11T23:08:25.145Z,101018.41
2023-03-11T23:10:57.794Z,101019.38
2023-03-11T23:13:35.528Z,101016.22
2023-03-11T23:16:09.293Z,101011.09
2023-03-11T23:18:42.268Z,101011.84
2023-03-11T23:21:15.501Z,100998.44
2023-03-11T23:23:48.478Z,101006.13
2023-03-11T23:26:22.062Z,100999.38
2023-03-11T23:28:56.563Z,100998.81
2023-03-11T23:31:31.775Z,100999.09
2023-03-11T23:34:06.493Z,100987.50
2023-03-11T23:36:39.090Z,100979.78
2023-03-11T23:39:11.885Z,100981.06
2023-03-11T23:41:44.571Z,100981.53
2023-03-11T23:44:18.530Z,100989.69
2023-03-11T23:46:51.423Z,100983.38
2023-03-11T23:49:26.403Z,100983.91
2023-03-11T23:51:59.073Z,100975.63
2023-03-11T23:54:31.672Z,100977.06
2023-03-11T23:57:04.787Z,100975.75
2023-03-11T23:59:47.173Z,100966.00
